createdAt,value
2022-10-18T00:00:17.147Z,93.05
2022-10-18T00:02:47.521Z,93.01
2022-10-18T00:05:18.069Z,93.04
2022-10-18T00:07:48.541Z,93.05
2022-10-18T00:10:19.268Z,93.03
2022-10-18T00:12:50.388Z,93.08
2022-10-18T00:15:21.774Z,93.09
2022-10-18T00:17:52.141Z,93.09
2022-10-18T00:20:22.749Z,93.05
2022-10-18T00:22:53.127Z,93.12
2022-10-18T00:25:23.491Z,93.18
2022-10-18T00:27:53.845Z,93.11
2022-10-18T00:30:24.615Z,93.09
2022-10-18T00:32:54.978Z,93.03
2022-10-18T00:35:25.720Z,93.02
2022-10-18T00:37:56.065Z,92.87
2022-10-18T00:40:26.744Z,92.66
2022-10-18T00:42:57.362Z,92.58
2022-10-18T00:45:28.094Z,92.54
2022-10-18T00:48:02.396Z,92.53
2022-10-18T00:50:35.936Z,92.67
2022-10-18T00:53:11.252Z,92.78
2022-10-18T00:55:41.929Z,93.01
2022-10-18T00:58:15.087Z,93.10
2022-10-18T01:00:45.474Z,93.24
2022-10-18T01:03:15.865Z,93.21
2022-10-18T01:05:48.772Z,93.26
2022-10-18T01:08:33.484Z,93.28
2022-10-18T01:11:22.498Z,93.27
2022-10-18T01:14:02.957Z,93.22
2022-10-18T01:16:38.757Z,93.00
2022-10-18T01:19:31.717Z,92.89
2022-10-18T01:22:10.328Z,93.05
2022-10-18T01:24:57.448Z,93.14
2022-10-18T01:27:37.966Z,93.29
2022-10-18T01:30:34.117Z,93.43
2022-10-18T01:33:10.158Z,93.42
2022-10-18T01:35:45.653Z,93.52
2022-10-18T01:38:20.415Z,93.53
2022-10-18T01:40:53.219Z,93.52
2022-10-18T01:43:27.491Z,93.56
2022-10-18T01:45:59.896Z,93.57
2022-10-18T01:48:30.702Z,93.57
2022-10-18T01:51:01.061Z,93.52
2022-10-18T01:53:34.843Z,93.40
2022-10-18T01:56:19.087Z,93.43
2022-10-18T01:59:01.697Z,93.52
2022-10-18T02:01:40.750Z,93.51
2022-10-18T02:04:20.590Z,93.68
2022-10-18T02:06:56.809Z,93.74
2022-10-18T02:09:35.031Z,93.86
2022-10-18T02:12:08.751Z,93.87
2022-10-18T02:14:39.460Z,93.98
2022-10-18T02:17:12.567Z,94.06
2022-10-18T02:19:47.193Z,94.09
2022-10-18T02:22:18.163Z,94.02
2022-10-18T02:24:52.143Z,94.00
2022-10-18T02:27:23.529Z,93.96
2022-10-18T02:29:54.728Z,93.95
2022-10-18T02:32:33.150Z,93.99
2022-10-18T02:35:12.196Z,94.01
2022-10-18T02:37:44.222Z,93.95
2022-10-18T02:40:14.869Z,93.93
2022-10-18T02:42:48.608Z,93.94
2022-10-18T02:45:19.443Z,93.92
2022-10-18T02:47:50.508Z,93.88
2022-10-18T02:50:21.591Z,93.86
2022-10-18T02:52:52.304Z,93.93
2022-10-18T02:55:22.994Z,94.01
2022-10-18T02:57:54.210Z,93.95
2022-10-18T03:00:25.153Z,93.89
2022-10-18T03:02:55.520Z,93.95
2022-10-18T03:05:26.172Z,93.95
2022-10-18T03:07:59.074Z,93.93
2022-10-18T03:10:29.680Z,93.82
2022-10-18T03:13:00.096Z,93.79
2022-10-18T03:15:30.426Z,93.61
2022-10-18T03:18:01.092Z,93.51
2022-10-18T03:20:31.544Z,93.48
2022-10-18T03:23:01.900Z,93.66
2022-10-18T03:25:32.265Z,93.51
2022-10-18T03:28:02.847Z,93.70
2022-10-18T03:30:33.253Z,93.77
2022-10-18T03:33:03.590Z,93.87
2022-10-18T03:35:34.408Z,93.93
2022-10-18T03:38:04.787Z,94.08
2022-10-18T03:40:35.238Z,93.98
2022-10-18T03:43:05.986Z,94.05
2022-10-18T03:45:36.322Z,94.03
2022-10-18T03:48:07.979Z,94.06
2022-10-18T03:50:38.488Z,94.12
2022-10-18T03:53:09.682Z,94.18
2022-10-18T03:55:40.952Z,94.18
2022-10-18T03:58:11.496Z,94.22
2022-10-18T04:00:41.838Z,94.08
2022-10-18T04:03:12.233Z,94.08
2022-10-18T04:05:42.565Z,94.16
2022-10-18T04:08:13.000Z,94.29
2022-10-18T04:10:44.044Z,94.23
2022-10-18T04:13:14.919Z,94.17
2022-10-18T04:15:45.516Z,94.25
2022-10-18T04:18:15.974Z,94.30
2022-10-18T04:20:46.576Z,94.43
2022-10-18T04:23:17.551Z,94.44
2022-10-18T04:25:48.576Z,94.45
2022-10-18T04:28:19.714Z,94.45
2022-10-18T04:30:53.457Z,94.49
2022-10-18T04:33:24.166Z,94.56
2022-10-18T04:35:55.658Z,94.53
2022-10-18T04:38:26.657Z,94.47
2022-10-18T04:40:57.305Z,94.46
2022-10-18T04:43:28.717Z,94.34
2022-10-18T04:45:59.370Z,94.34
2022-10-18T04:48:30.095Z,94.27
2022-10-18T04:51:01.097Z,94.21
2022-10-18T04:53:31.460Z,94.34
2022-10-18T04:56:02.406Z,94.25
2022-10-18T04:58:33.579Z,94.32
2022-10-18T05:01:07.759Z,94.34
2022-10-18T05:03:38.177Z,94.35
2022-10-18T05:06:08.853Z,94.34
2022-10-18T05:08:39.966Z,94.36
2022-10-18T05:13:48.614Z,94.28
2022-10-18T05:16:21.319Z,94.33
2022-10-18T05:18:52.320Z,94.32
2022-10-18T05:21:23.049Z,94.32
2022-10-18T05:23:56.157Z,94.34
2022-10-18T05:26:26.569Z,94.29
2022-10-18T05:28:57.319Z,94.21
2022-10-18T05:31:27.981Z,94.18
2022-10-18T05:33:58.983Z,94.17
2022-10-18T05:36:29.341Z,94.05
2022-10-18T05:39:04.014Z,94.11
2022-10-18T05:41:36.065Z,94.09
2022-10-18T05:44:07.621Z,94.02
2022-10-18T05:46:37.966Z,93.99
2022-10-18T05:49:08.678Z,94.00
2022-10-18T05:51:39.901Z,94.09
2022-10-18T05:54:11.338Z,94.18
2022-10-18T05:56:42.175Z,94.20
2022-10-18T05:59:13.218Z,94.19
2022-10-18T06:01:45.522Z,94.22
2022-10-18T06:04:17.821Z,94.30
2022-10-18T06:06:48.205Z,94.16
2022-10-18T06:09:18.533Z,94.06
2022-10-18T06:11:48.849Z,94.09
2022-10-18T06:14:19.498Z,94.01
2022-10-18T06:16:50.562Z,94.10
2022-10-18T06:19:21.842Z,94.06
2022-10-18T06:21:52.268Z,94.08
2022-10-18T06:24:23.230Z,94.02
2022-10-18T06:26:53.606Z,93.99
2022-10-18T06:29:24.115Z,94.02
2022-10-18T06:31:54.478Z,94.11
2022-10-18T06:34:24.937Z,94.26
2022-10-18T06:36:56.535Z,94.31
2022-10-18T06:39:29.197Z,94.32
2022-10-18T06:41:59.540Z,94.45
2022-10-18T06:44:30.862Z,94.51
2022-10-18T06:47:01.281Z,94.62
2022-10-18T06:49:31.890Z,94.75
2022-10-18T06:52:02.788Z,94.76
2022-10-18T06:54:33.453Z,94.83
2022-10-18T06:57:03.804Z,94.82
2022-10-18T06:59:34.421Z,94.89
2022-10-18T07:02:04.876Z,94.91
2022-10-18T07:04:35.750Z,94.87
2022-10-18T07:07:06.128Z,94.89
2022-10-18T07:09:36.809Z,94.81
2022-10-18T07:12:07.952Z,94.74
2022-10-18T07:14:38.288Z,94.72
2022-10-18T07:17:08.915Z,94.76
2022-10-18T07:19:39.276Z,94.78
2022-10-18T07:22:09.754Z,94.85
2022-10-18T07:24:40.145Z,94.84
2022-10-18T07:27:10.564Z,94.90
2022-10-18T07:29:41.193Z,94.84
2022-10-18T07:32:11.610Z,94.90
2022-10-18T07:34:42.001Z,94.94
2022-10-18T07:37:12.349Z,95.15
2022-10-18T07:39:42.719Z,95.32
2022-10-18T07:42:13.050Z,95.43
2022-10-18T07:44:43.774Z,95.48
2022-10-18T07:47:15.114Z,95.62
2022-10-18T07:49:45.547Z,95.74
2022-10-18T07:52:15.923Z,95.83
2022-10-18T07:54:46.355Z,95.95
2022-10-18T07:57:17.061Z,96.03
2022-10-18T07:59:48.336Z,96.08
2022-10-18T08:02:18.778Z,96.10
2022-10-18T08:04:49.426Z,96.17
2022-10-18T08:07:19.866Z,96.09
2022-10-18T08:09:50.645Z,96.18
2022-10-18T08:12:21.095Z,96.16
2022-10-18T08:14:51.454Z,96.18
2022-10-18T08:17:21.794Z,96.11
2022-10-18T08:20:04.823Z,96.11
2022-10-18T08:22:42.687Z,96.18
2022-10-18T08:25:13.124Z,96.22
2022-10-18T08:27:43.428Z,96.30
2022-10-18T08:30:14.444Z,96.33
2022-10-18T08:32:45.038Z,96.35
2022-10-18T08:35:15.653Z,96.29
2022-10-18T08:37:46.255Z,96.22
2022-10-18T08:40:17.377Z,96.21
2022-10-18T08:42:58.515Z,96.16
2022-10-18T08:45:41.519Z,96.24
2022-10-18T08:48:22.843Z,96.26
2022-10-18T08:50:55.368Z,96.26
2022-10-18T08:53:36.147Z,96.26
2022-10-18T08:56:14.844Z,96.23
2022-10-18T08:58:45.871Z,96.22
2022-10-18T09:01:27.631Z,96.13
2022-10-18T09:04:21.245Z,96.03
2022-10-18T09:07:00.591Z,95.92
2022-10-18T09:09:40.601Z,95.81
2022-10-18T09:12:34.005Z,95.66
2022-10-18T09:15:14.237Z,95.39
2022-10-18T09:17:57.604Z,95.18
2022-10-18T09:20:32.315Z,95.12
2022-10-18T09:23:16.047Z,94.92
2022-10-18T09:25:48.717Z,94.72
2022-10-18T09:28:32.692Z,94.40
2022-10-18T09:31:10.886Z,94.21
2022-10-18T09:33:54.979Z,94.01
2022-10-18T09:36:28.206Z,93.87
2022-10-18T09:39:03.970Z,93.76
2022-10-18T09:41:41.062Z,93.68
2022-10-18T09:44:19.777Z,93.40
2022-10-18T09:46:53.323Z,93.08
2022-10-18T09:49:28.837Z,92.95
2022-10-18T09:52:01.277Z,92.78
2022-10-18T09:54:36.941Z,92.86
2022-10-18T09:57:11.056Z,92.73
2022-10-18T09:59:44.129Z,92.66
2022-10-18T10:02:18.110Z,92.45
2022-10-18T10:04:48.781Z,92.44
2022-10-18T10:07:22.466Z,92.36
2022-10-18T10:09:59.648Z,92.29
2022-10-18T10:12:32.725Z,91.94
2022-10-18T10:15:22.402Z,91.30
2022-10-18T10:18:01.576Z,91.28
2022-10-18T10:20:38.142Z,91.19
2022-10-18T10:23:15.524Z,90.97
2022-10-18T10:25:51.596Z,90.79
2022-10-18T10:28:24.263Z,90.70
2022-10-18T10:30:54.812Z,90.76
2022-10-18T10:33:37.273Z,90.69
2022-10-18T10:36:17.462Z,90.57
2022-10-18T10:39:02.974Z,90.49
2022-10-18T10:41:34.451Z,90.34
2022-10-18T10:44:15.496Z,90.40
2022-10-18T10:46:46.746Z,90.07
2022-10-18T10:52:28.564Z,89.47
2022-10-18T10:55:34.154Z,89.55
2022-10-18T10:57:53.837Z,89.36
2022-10-18T11:00:42.459Z,89.10
2022-10-18T11:03:28.414Z,89.06
2022-10-18T11:06:01.108Z,89.05
2022-10-18T11:08:39.361Z,88.42
2022-10-18T11:11:22.184Z,88.47
2022-10-18T11:14:20.585Z,87.98
2022-10-18T11:16:56.497Z,88.03
2022-10-18T11:19:32.847Z,88.47
2022-10-18T11:22:06.317Z,88.14
2022-10-18T11:24:37.816Z,87.87
2022-10-18T11:27:16.558Z,87.79
2022-10-18T11:30:00.841Z,87.58
2022-10-18T11:32:43.329Z,87.15
2022-10-18T11:35:30.512Z,85.89
2022-10-18T11:38:13.863Z,85.46
2022-10-18T11:41:06.254Z,85.91
2022-10-18T11:44:01.852Z,86.20
2022-10-18T11:46:47.093Z,85.46
2022-10-18T11:49:34.075Z,85.02
2022-10-18T11:52:13.562Z,85.13
2022-10-18T11:55:04.350Z,85.60
2022-10-18T11:57:44.989Z,86.01
2022-10-18T12:03:25.575Z,86.01
2022-10-18T12:05:59.189Z,86.16
2022-10-18T12:08:35.517Z,86.49
2022-10-18T12:11:15.550Z,87.12
2022-10-18T12:13:50.041Z,87.31
2022-10-18T12:16:45.666Z,86.91
2022-10-18T12:19:26.257Z,87.01
2022-10-18T12:22:03.992Z,85.33
2022-10-18T12:24:35.705Z,85.17
2022-10-18T12:27:07.156Z,84.55
2022-10-18T12:29:47.970Z,84.79
2022-10-18T12:32:25.753Z,84.12
2022-10-18T12:35:00.896Z,84.40
2022-10-18T12:37:59.085Z,84.43
2022-10-18T12:40:37.542Z,84.17
2022-10-18T12:43:18.933Z,84.40
2022-10-18T12:45:56.533Z,84.69
2022-10-18T12:48:32.974Z,84.31
2022-10-18T12:51:15.071Z,83.81
2022-10-18T12:53:47.566Z,83.07
2022-10-18T12:56:42.163Z,83.21
2022-10-18T12:59:50.063Z,83.03
2022-10-18T13:02:32.260Z,83.40
2022-10-18T13:05:40.936Z,84.03
2022-10-18T13:08:38.349Z,82.31
2022-10-18T13:11:36.901Z,81.70
2022-10-18T13:14:29.591Z,81.24
2022-10-18T13:17:07.853Z,80.87
2022-10-18T13:19:58.110Z,80.55
2022-10-18T13:23:02.757Z,80.13
2022-10-18T13:25:47.316Z,80.30
2022-10-18T13:28:29.937Z,80.55
2022-10-18T13:31:13.432Z,80.45
2022-10-18T13:33:44.314Z,79.65
2022-10-18T13:36:26.176Z,78.58
2022-10-18T13:39:05.912Z,77.09
2022-10-18T13:42:09.784Z,75.39
2022-10-18T13:44:40.305Z,75.30
2022-10-18T13:47:16.077Z,74.41
2022-10-18T13:50:11.000Z,74.47
2022-10-18T13:52:56.588Z,74.51
2022-10-18T13:55:43.828Z,74.05
2022-10-18T13:58:23.398Z,71.04
2022-10-18T14:01:11.491Z,69.54
2022-10-18T14:04:00.041Z,69.70
2022-10-18T14:06:36.337Z,69.36
2022-10-18T14:09:25.707Z,69.64
2022-10-18T14:12:10.119Z,70.24
2022-10-18T14:14:48.680Z,70.67
2022-10-18T14:17:28.348Z,69.90
2022-10-18T14:20:05.131Z,70.14
2022-10-18T14:22:39.998Z,70.60
2022-10-18T14:25:24.049Z,70.42
2022-10-18T14:28:13.689Z,70.72
2022-10-18T14:30:58.949Z,71.24
2022-10-18T14:33:33.731Z,71.46
2022-10-18T14:36:11.649Z,70.64
2022-10-18T14:38:55.501Z,70.51
2022-10-18T14:41:27.828Z,68.71
2022-10-18T14:44:19.291Z,67.42
2022-10-18T14:46:52.272Z,66.60
2022-10-18T14:49:23.133Z,66.19
2022-10-18T14:51:56.976Z,65.83
2022-10-18T14:54:32.388Z,66.38
2022-10-18T14:57:04.639Z,66.89
2022-10-18T14:59:42.877Z,67.07
2022-10-18T15:02:17.301Z,68.11
2022-10-18T15:04:48.538Z,68.39
2022-10-18T15:07:20.753Z,68.91
2022-10-18T15:09:51.973Z,69.50
2022-10-18T15:12:23.009Z,69.41
2022-10-18T15:14:54.437Z,68.66
2022-10-18T15:17:27.805Z,68.93
2022-10-18T15:20:05.966Z,68.64
2022-10-18T15:22:37.355Z,68.45
2022-10-18T15:25:16.084Z,69.34
2022-10-18T15:27:49.166Z,69.26
2022-10-18T15:30:23.821Z,68.98
2022-10-18T15:32:56.721Z,68.88
2022-10-18T15:35:30.221Z,68.92
2022-10-18T15:38:03.530Z,68.93
2022-10-18T15:40:42.819Z,69.00
2022-10-18T15:43:47.541Z,68.71
2022-10-18T15:46:33.131Z,68.61
2022-10-18T15:49:56.561Z,68.64
2022-10-18T15:52:39.216Z,68.86
2022-10-18T15:55:44.677Z,68.85
2022-10-18T15:58:20.736Z,68.63
2022-10-18T16:00:52.989Z,68.86
2022-10-18T16:03:24.207Z,68.98
2022-10-18T16:05:57.565Z,68.94
2022-10-18T16:08:30.480Z,69.09
2022-10-18T16:11:01.608Z,69.09
2022-10-18T16:13:32.008Z,69.24
2022-10-18T16:16:02.490Z,69.42
2022-10-18T16:18:34.669Z,69.69
2022-10-18T16:21:05.218Z,69.87
2022-10-18T16:23:35.746Z,70.19
2022-10-18T16:26:06.672Z,70.30
2022-10-18T16:28:37.099Z,70.46
2022-10-18T16:31:08.816Z,70.56
2022-10-18T16:33:39.181Z,70.82
2022-10-18T16:36:12.210Z,71.10
2022-10-18T16:38:42.594Z,71.32
2022-10-18T16:41:15.912Z,71.92
2022-10-18T16:43:47.942Z,72.58
2022-10-18T16:46:20.750Z,73.06
2022-10-18T16:48:52.403Z,73.72
2022-10-18T16:51:23.308Z,74.32
2022-10-18T16:53:54.237Z,74.77
2022-10-18T16:56:27.057Z,75.27
2022-10-18T16:58:57.500Z,75.78
2022-10-18T17:01:28.434Z,76.10
2022-10-18T17:03:59.001Z,76.32
2022-10-18T17:06:31.233Z,76.90
2022-10-18T17:09:01.869Z,77.40
2022-10-18T17:11:32.583Z,77.48
2022-10-18T17:14:02.952Z,77.58
2022-10-18T17:16:35.093Z,77.55
2022-10-18T17:19:08.274Z,77.53
2022-10-18T17:21:39.115Z,77.51
2022-10-18T17:24:09.523Z,77.55
2022-10-18T17:26:40.162Z,77.33
2022-10-18T17:29:10.623Z,77.29
2022-10-18T17:31:41.033Z,77.15
2022-10-18T17:34:11.645Z,77.11
2022-10-18T17:36:42.092Z,77.09
2022-10-18T17:39:12.572Z,76.93
2022-10-18T17:41:42.909Z,77.01
2022-10-18T17:44:13.438Z,76.97
2022-10-18T17:46:44.578Z,77.03
2022-10-18T17:49:15.520Z,77.03
2022-10-18T17:51:46.467Z,77.23
2022-10-18T17:54:17.008Z,77.11
2022-10-18T17:56:49.905Z,77.11
2022-10-18T17:59:23.032Z,77.09
2022-10-18T18:01:54.040Z,77.17
2022-10-18T18:04:25.778Z,77.26
2022-10-18T18:06:57.271Z,77.25
2022-10-18T18:09:28.371Z,77.33
2022-10-18T18:11:58.881Z,77.35
2022-10-18T18:14:29.453Z,77.31
2022-10-18T18:17:01.283Z,77.40
2022-10-18T18:19:31.917Z,77.60
2022-10-18T18:22:03.629Z,77.81
2022-10-18T18:24:34.316Z,77.99
2022-10-18T18:27:04.722Z,78.05
2022-10-18T18:29:35.066Z,78.23
2022-10-18T18:32:05.885Z,78.41
2022-10-18T18:34:36.589Z,78.63
2022-10-18T18:37:07.269Z,78.88
2022-10-18T18:39:39.347Z,78.95
2022-10-18T18:42:10.728Z,79.18
2022-10-18T18:44:45.811Z,79.29
2022-10-18T18:47:16.158Z,79.31
2022-10-18T18:49:46.611Z,79.49
2022-10-18T18:52:17.269Z,79.53
2022-10-18T18:54:47.601Z,79.62
2022-10-18T18:57:19.084Z,79.69
2022-10-18T18:59:49.733Z,79.66
2022-10-18T19:02:20.538Z,79.61
2022-10-18T19:04:51.458Z,79.59
2022-10-18T19:07:22.073Z,79.59
2022-10-18T19:09:53.061Z,79.59
2022-10-18T19:12:23.681Z,79.68
2022-10-18T19:14:54.599Z,79.70
2022-10-18T19:17:26.688Z,79.62
2022-10-18T19:19:58.927Z,79.53
2022-10-18T19:22:29.598Z,79.62
2022-10-18T19:25:00.233Z,79.59
2022-10-18T19:27:30.676Z,79.84
2022-10-18T19:30:01.295Z,80.17
2022-10-18T19:32:31.605Z,80.37
2022-10-18T19:35:02.035Z,80.34
2022-10-18T19:37:33.035Z,80.46
2022-10-18T19:40:03.917Z,80.59
2022-10-18T19:42:34.643Z,80.53
2022-10-18T19:45:06.107Z,80.46
2022-10-18T19:47:38.489Z,80.45
2022-10-18T19:50:10.572Z,80.66
2022-10-18T19:52:41.565Z,80.66
2022-10-18T19:55:11.981Z,80.74
2022-10-18T19:57:42.621Z,80.77
2022-10-18T20:00:19.298Z,80.75
2022-10-18T20:02:50.106Z,80.88
2022-10-18T20:05:20.663Z,80.91
2022-10-18T20:07:51.350Z,80.97
2022-10-18T20:10:21.786Z,80.91
2022-10-18T20:12:52.794Z,81.13
2022-10-18T20:15:23.126Z,81.06
2022-10-18T20:17:53.546Z,81.29
2022-10-18T20:20:24.614Z,81.40
2022-10-18T20:22:55.108Z,81.38
2022-10-18T20:25:25.507Z,81.37
2022-10-18T20:27:55.865Z,81.56
2022-10-18T20:30:26.709Z,81.73
2022-10-18T20:32:57.201Z,81.79
2022-10-18T20:35:28.580Z,81.83
2022-10-18T20:37:59.507Z,81.83
2022-10-18T20:40:30.148Z,81.81
2022-10-18T20:43:03.723Z,81.93
2022-10-18T20:45:35.014Z,82.17
2022-10-18T20:48:05.888Z,82.44
2022-10-18T20:50:38.724Z,82.37
2022-10-18T20:53:09.071Z,82.54
2022-10-18T20:55:39.493Z,82.61
2022-10-18T20:58:10.288Z,82.59
2022-10-18T21:00:41.240Z,82.47
2022-10-18T21:05:43.416Z,82.65
2022-10-18T21:08:14.038Z,82.81
2022-10-18T21:10:44.364Z,82.75
2022-10-18T21:13:15.382Z,82.88
2022-10-18T21:15:54.161Z,83.14
2022-10-18T21:18:27.868Z,83.19
2022-10-18T21:21:07.434Z,83.29
2022-10-18T21:23:38.211Z,83.35
2022-10-18T21:26:09.498Z,83.35
2022-10-18T21:28:39.985Z,83.31
2022-10-18T21:31:15.876Z,83.40
2022-10-18T21:33:47.870Z,83.34
2022-10-18T21:36:18.314Z,83.40
2022-10-18T21:38:48.888Z,83.58
2022-10-18T21:41:22.229Z,83.70
2022-10-18T21:43:55.200Z,83.88
2022-10-18T21:46:27.034Z,84.02
2022-10-18T21:48:58.961Z,84.12
2022-10-18T21:51:30.378Z,84.18
2022-10-18T21:54:01.458Z,84.20
2022-10-18T21:56:34.192Z,84.28
2022-10-18T21:59:05.228Z,84.24
2022-10-18T22:01:37.675Z,84.13
2022-10-18T22:04:18.005Z,84.09
2022-10-18T22:06:48.571Z,84.04
2022-10-18T22:09:19.742Z,84.26
2022-10-18T22:11:53.716Z,84.37
2022-10-18T22:14:24.571Z,84.52
2022-10-18T22:16:55.693Z,84.46
2022-10-18T22:19:26.072Z,84.54
2022-10-18T22:21:56.580Z,84.56
2022-10-18T22:24:27.375Z,84.55
2022-10-18T22:26:57.880Z,84.51
2022-10-18T22:29:28.310Z,84.46
2022-10-18T22:31:58.658Z,84.42
2022-10-18T22:34:29.092Z,84.37
2022-10-18T22:36:59.488Z,84.30
2022-10-18T22:39:29.980Z,84.44
2022-10-18T22:42:00.696Z,84.53
2022-10-18T22:44:31.103Z,84.55
2022-10-18T22:47:01.941Z,84.48
2022-10-18T22:49:32.276Z,84.54
2022-10-18T22:52:03.303Z,84.58
2022-10-18T22:54:33.705Z,84.65
2022-10-18T22:57:04.255Z,84.70
2022-10-18T22:59:34.826Z,84.69
2022-10-18T23:02:05.242Z,84.52
2022-10-18T23:04:36.065Z,84.26
2022-10-18T23:07:06.758Z,84.08
2022-10-18T23:09:37.355Z,83.98
2022-10-18T23:12:07.848Z,83.68
2022-10-18T23:14:38.296Z,83.54
2022-10-18T23:17:08.931Z,83.64
2022-10-18T23:19:39.877Z,83.65
2022-10-18T23:22:10.496Z,83.57
2022-10-18T23:24:40.940Z,83.67
2022-10-18T23:27:11.417Z,83.70
2022-10-18T23:29:41.841Z,83.76
2022-10-18T23:32:12.835Z,83.48
2022-10-18T23:34:43.173Z,83.40
2022-10-18T23:37:13.508Z,83.26
2022-10-18T23:39:44.204Z,83.25
2022-10-18T23:42:14.566Z,83.34
2022-10-18T23:44:44.999Z,83.26
2022-10-18T23:47:15.622Z,83.21
2022-10-18T23:49:46.027Z,83.24
2022-10-18T23:52:16.460Z,83.17
2022-10-18T23:54:46.918Z,82.96
2022-10-18T23:57:17.474Z,82.74
2022-10-18T23:59:47.839Z,82.65
